createdAt,value
2022-10-28T00:01:33.825Z,101606.81
2022-10-28T00:04:05.728Z,101592.59
2022-10-28T00:06:37.182Z,101587.66
2022-10-28T00:09:12.077Z,101592.41
2022-10-28T00:11:43.920Z,101596.72
2022-10-28T00:14:15.849Z,101607.19
2022-10-28T00:16:47.337Z,101604.31
2022-10-28T00:19:19.099Z,101606.34
2022-10-28T00:21:50.592Z,101603.25
2022-10-28T00:24:22.354Z,101613.94
2022-10-28T00:26:53.897Z,101611.28
2022-10-28T00:29:25.694Z,101616.19
2022-10-28T00:31:57.508Z,101610.03
2022-10-28T00:34:29.051Z,101605.91
2022-10-28T00:37:00.839Z,101604.06
2022-10-28T00:39:32.314Z,101589.44
2022-10-28T00:42:03.912Z,101598.91
2022-10-28T00:44:35.418Z,101608.34
2022-10-28T00:47:07.213Z,101600.72
2022-10-28T00:49:38.683Z,101591.44
2022-10-28T00:52:10.661Z,101595.94
2022-10-28T00:54:42.121Z,101590.97
2022-10-28T00:57:13.885Z,101589.31
2022-10-28T00:59:45.379Z,101579.84
2022-10-28T01:02:17.273Z,101582.91
2022-10-28T01:04:48.869Z,101593.19
2022-10-28T01:07:20.685Z,101575.66
2022-10-28T01:09:52.613Z,101572.78
2022-10-28T01:12:24.399Z,101578.94
2022-10-28T01:14:55.869Z,101579.97
2022-10-28T01:17:27.648Z,101576.91
2022-10-28T01:19:59.105Z,101578.78
2022-10-28T01:25:07.432Z,101580.41
2022-10-28T01:27:39.162Z,101593.59
2022-10-28T01:30:11.207Z,101573.03
2022-10-28T01:32:43.215Z,101580.69
2022-10-28T01:35:14.668Z,101572.22
2022-10-28T01:37:47.734Z,101565.03
2022-10-28T01:40:19.284Z,101565.03
2022-10-28T01:42:51.187Z,101564.63
2022-10-28T01:45:22.669Z,101554.81
2022-10-28T01:47:54.847Z,101552.38
2022-10-28T01:50:26.543Z,101552.38
2022-10-28T01:52:58.324Z,101555.88
2022-10-28T01:55:29.790Z,101549.47
2022-10-28T01:58:01.539Z,101555.66
2022-10-28T02:00:33.096Z,101552.16
2022-10-28T02:03:05.059Z,101552.16
2022-10-28T02:05:36.524Z,101551.53
2022-10-28T02:08:11.521Z,101548.25
2022-10-28T02:10:43.022Z,101536.75
2022-10-28T02:13:14.991Z,101536.97
2022-10-28T02:15:46.458Z,101537.16
2022-10-28T02:18:18.095Z,101542.13
2022-10-28T02:20:49.813Z,101539.50
2022-10-28T02:23:21.597Z,101540.94
2022-10-28T02:25:53.073Z,101548.56
2022-10-28T02:28:24.924Z,101542.22
2022-10-28T02:30:58.093Z,101551.31
2022-10-28T02:33:29.897Z,101542.06
2022-10-28T02:36:01.404Z,101551.13
2022-10-28T02:38:33.779Z,101546.38
2022-10-28T02:41:05.223Z,101549.66
2022-10-28T02:43:37.215Z,101548.41
2022-10-28T02:46:08.677Z,101546.81
2022-10-28T02:48:40.478Z,101502.84
2022-10-28T02:51:11.929Z,101538.78
2022-10-28T02:53:43.741Z,101529.72
2022-10-28T02:56:15.221Z,101527.06
2022-10-28T02:58:47.237Z,101529.13
2022-10-28T03:01:18.827Z,101537.09
2022-10-28T03:03:50.872Z,101534.22
2022-10-28T03:06:22.385Z,101537.72
2022-10-28T03:08:54.354Z,101539.34
2022-10-28T03:11:25.803Z,101532.97
2022-10-28T03:13:57.651Z,101536.03
2022-10-28T03:16:29.160Z,101541.81
2022-10-28T03:19:01.072Z,101540.59
2022-10-28T03:21:32.644Z,101534.22
2022-10-28T03:24:04.108Z,101528.25
2022-10-28T03:26:35.577Z,101527.88
2022-10-28T03:29:07.075Z,101532.00
2022-10-28T03:31:38.542Z,101532.22
2022-10-28T03:34:10.418Z,101532.03
2022-10-28T03:36:41.878Z,101540.66
2022-10-28T03:39:13.620Z,101541.50
2022-10-28T03:41:45.115Z,101540.91
2022-10-28T03:44:16.970Z,101534.31
2022-10-28T03:46:48.422Z,101545.03
2022-10-28T03:49:20.356Z,101539.69
2022-10-28T03:51:51.845Z,101544.44
2022-10-28T03:54:23.726Z,101550.63
2022-10-28T03:56:55.488Z,101537.44
2022-10-28T03:59:26.939Z,101532.13
2022-10-28T04:01:58.815Z,101534.19
2022-10-28T04:04:30.876Z,101535.19
2022-10-28T04:07:02.769Z,101533.75
2022-10-28T04:09:34.225Z,101528.00
2022-10-28T04:14:42.402Z,101528.41
2022-10-28T04:17:14.181Z,101523.06
2022-10-28T04:19:45.636Z,101528.59
2022-10-28T04:22:17.458Z,101530.69
2022-10-28T04:24:48.933Z,101538.28
2022-10-28T04:27:20.780Z,101542.81
2022-10-28T04:29:52.232Z,101526.38
2022-10-28T04:32:24.160Z,101523.91
2022-10-28T04:34:55.613Z,101519.38
2022-10-28T04:37:27.212Z,101515.66
2022-10-28T04:39:58.669Z,101515.25
2022-10-28T04:42:30.467Z,101519.78
2022-10-28T04:45:01.924Z,101515.28
2022-10-28T04:47:33.698Z,101513.81
2022-10-28T04:50:05.150Z,101513.22
2022-10-28T04:52:36.897Z,101518.97
2022-10-28T04:55:08.342Z,101512.59
2022-10-28T04:57:40.100Z,101509.31
2022-10-28T05:00:11.568Z,101510.56
2022-10-28T05:02:46.041Z,101511.75
2022-10-28T05:07:54.409Z,101513.22
2022-10-28T05:10:26.030Z,101513.84
2022-10-28T05:12:57.884Z,101509.72
2022-10-28T05:15:31.261Z,101506.41
2022-10-28T05:18:03.106Z,101523.28
2022-10-28T05:20:34.582Z,101526.34
2022-10-28T05:23:06.414Z,101522.69
2022-10-28T05:25:37.933Z,101505.63
2022-10-28T05:28:09.707Z,101502.94
2022-10-28T05:30:41.176Z,101504.59
2022-10-28T05:33:12.965Z,101499.66
2022-10-28T05:35:44.429Z,101496.34
2022-10-28T05:38:16.250Z,101504.38
2022-10-28T05:40:47.717Z,101491.84
2022-10-28T05:43:19.220Z,101500.44
2022-10-28T05:45:50.686Z,101492.63
2022-10-28T05:48:22.474Z,101496.50
2022-10-28T05:50:53.950Z,101488.88
2022-10-28T05:53:25.737Z,101489.72
2022-10-28T05:55:57.197Z,101488.84
2022-10-28T05:58:29.066Z,101494.22
2022-10-28T06:01:00.529Z,101492.97
2022-10-28T06:03:32.350Z,101499.53
2022-10-28T06:06:03.850Z,101501.94
2022-10-28T06:08:35.719Z,101494.31
2022-10-28T06:11:05.641Z,101482.75
2022-10-28T06:13:37.439Z,101487.47
2022-10-28T06:16:08.980Z,101492.38
2022-10-28T06:18:40.820Z,101484.97
2022-10-28T06:21:12.968Z,101494.84
2022-10-28T06:23:44.448Z,101492.34
2022-10-28T06:26:15.918Z,101479.13
2022-10-28T06:28:47.656Z,101487.31
2022-10-28T06:31:19.133Z,101486.88
2022-10-28T06:33:50.974Z,101487.28
2022-10-28T06:36:22.477Z,101473.25
2022-10-28T06:38:54.266Z,101484.34
2022-10-28T06:41:25.743Z,101487.22
2022-10-28T06:43:57.645Z,101484.69
2022-10-28T06:46:29.451Z,101479.72
2022-10-28T06:49:05.789Z,101474.75
2022-10-28T06:51:37.743Z,101480.50
2022-10-28T06:54:09.350Z,101481.72
2022-10-28T06:56:41.179Z,101490.13
2022-10-28T06:59:12.678Z,101499.16
2022-10-28T07:01:44.637Z,101490.03
2022-10-28T07:04:16.251Z,101493.03
2022-10-28T07:06:49.915Z,101487.59
2022-10-28T07:09:23.514Z,101490.59
2022-10-28T07:11:56.002Z,101498.97
2022-10-28T07:14:27.994Z,101500.47
2022-10-28T07:16:59.850Z,101293.59
2022-10-28T07:19:31.333Z,101500.53
2022-10-28T07:22:03.119Z,101494.13
2022-10-28T07:24:34.618Z,101503.44
2022-10-28T07:27:06.540Z,101487.47
2022-10-28T07:29:37.994Z,101505.91
2022-10-28T07:32:09.775Z,101506.63
2022-10-28T07:34:41.246Z,101501.41
2022-10-28T07:37:13.242Z,101494.69
2022-10-28T07:39:44.783Z,101493.50
2022-10-28T07:42:16.765Z,101490.28
2022-10-28T07:44:48.238Z,101476.28
2022-10-28T07:47:21.912Z,101473.28
2022-10-28T07:49:54.327Z,101485.50
2022-10-28T07:52:26.159Z,101479.44
2022-10-28T07:54:57.666Z,101478.56
2022-10-28T07:57:29.669Z,101475.28
2022-10-28T08:00:01.197Z,101480.41
2022-10-28T08:02:32.968Z,101483.91
2022-10-28T08:05:04.534Z,101496.66
2022-10-28T08:07:38.623Z,101492.69
2022-10-28T08:10:10.585Z,101492.25
2022-10-28T08:12:42.525Z,101485.94
2022-10-28T08:15:16.038Z,101487.22
2022-10-28T08:17:47.831Z,101495.75
2022-10-28T08:20:19.291Z,101510.00
2022-10-28T08:22:50.998Z,101507.66
2022-10-28T08:25:22.651Z,101498.88
2022-10-28T08:27:54.491Z,101490.44
2022-10-28T08:30:25.982Z,101502.91
2022-10-28T08:32:57.913Z,101502.38
2022-10-28T08:35:29.397Z,101492.72
2022-10-28T08:38:00.982Z,101499.41
2022-10-28T08:40:32.532Z,101498.28
2022-10-28T08:43:04.466Z,101488.25
2022-10-28T08:45:35.957Z,101490.69
2022-10-28T08:48:07.847Z,101476.78
2022-10-28T08:50:39.364Z,101473.44
2022-10-28T08:53:11.167Z,101474.38
2022-10-28T08:55:42.668Z,101475.38
2022-10-28T08:58:14.545Z,101473.84
2022-10-28T09:00:46.044Z,101487.41
2022-10-28T09:03:18.411Z,101490.41
2022-10-28T09:05:50.551Z,101485.19
2022-10-28T09:08:23.065Z,101484.09
2022-10-28T09:10:54.615Z,101491.22
2022-10-28T09:13:26.442Z,101484.28
2022-10-28T09:15:59.040Z,101480.38
2022-10-28T09:18:30.834Z,101471.81
2022-10-28T09:21:02.332Z,101471.28
2022-10-28T09:23:33.852Z,101478.03
2022-10-28T09:26:05.350Z,101472.41
2022-10-28T09:28:37.422Z,101465.38
2022-10-28T09:31:08.970Z,101471.84
2022-10-28T09:33:40.850Z,101464.81
2022-10-28T09:36:12.350Z,101468.59
2022-10-28T09:38:44.231Z,101475.66
2022-10-28T09:41:15.745Z,101472.66
2022-10-28T09:43:47.974Z,101460.19
2022-10-28T09:46:19.502Z,101453.41
2022-10-28T09:48:51.394Z,101447.00
2022-10-28T09:51:22.890Z,101450.22
2022-10-28T09:53:54.639Z,101454.97
2022-10-28T09:56:26.204Z,101456.00
2022-10-28T09:58:58.113Z,101457.84
2022-10-28T10:01:29.669Z,101452.03
2022-10-28T10:04:01.643Z,101444.97
2022-10-28T10:06:33.465Z,101447.06
2022-10-28T10:09:04.973Z,101458.94
2022-10-28T10:11:36.909Z,101455.19
2022-10-28T10:14:08.505Z,101457.50
2022-10-28T10:16:40.399Z,101446.41
2022-10-28T10:19:11.946Z,101443.84
2022-10-28T10:21:43.910Z,101434.06
2022-10-28T10:24:15.391Z,101435.72
2022-10-28T10:26:47.219Z,101433.34
2022-10-28T10:29:18.720Z,101426.47
2022-10-28T10:31:50.550Z,101428.91
2022-10-28T10:34:22.067Z,101433.94
2022-10-28T10:36:53.961Z,101424.44
2022-10-28T10:39:26.555Z,101413.47
2022-10-28T10:41:58.442Z,101421.56
2022-10-28T10:44:29.956Z,101414.91
2022-10-28T10:47:06.024Z,101418.09
2022-10-28T10:49:38.248Z,101415.22
2022-10-28T10:52:10.044Z,101404.66
2022-10-28T10:54:41.552Z,101390.81
2022-10-28T10:57:13.361Z,101395.38
2022-10-28T10:59:44.844Z,101386.41
2022-10-28T11:02:16.818Z,101387.59
2022-10-28T11:04:48.400Z,101386.16
2022-10-28T11:07:20.384Z,101376.44
2022-10-28T11:09:51.920Z,101383.34
2022-10-28T11:12:23.733Z,101372.22
2022-10-28T11:14:55.300Z,101372.75
2022-10-28T11:17:27.316Z,101373.38
2022-10-28T11:19:58.872Z,101368.34
2022-10-28T11:22:30.707Z,101374.53
2022-10-28T11:25:02.194Z,101374.06
2022-10-28T11:27:34.133Z,101363.25
2022-10-28T11:30:05.626Z,101368.34
2022-10-28T11:32:44.137Z,101360.53
2022-10-28T11:35:26.254Z,101366.06
2022-10-28T11:37:59.024Z,101366.38
2022-10-28T11:40:31.726Z,101369.38
2022-10-28T11:43:03.662Z,101357.19
2022-10-28T11:45:35.163Z,101360.13
2022-10-28T11:48:07.090Z,101346.75
2022-10-28T11:50:38.666Z,101349.63
2022-10-28T11:53:10.617Z,101356.09
2022-10-28T11:55:42.112Z,101347.13
2022-10-28T12:00:50.498Z,101354.81
2022-10-28T12:03:22.051Z,101349.16
2022-10-28T12:05:53.649Z,101343.47
2022-10-28T12:08:25.339Z,101342.47
2022-10-28T12:10:56.834Z,101334.59
2022-10-28T12:13:28.693Z,101342.50
2022-10-28T12:16:00.201Z,101334.41
2022-10-28T12:18:32.061Z,101333.59
2022-10-28T12:21:03.644Z,101334.31
2022-10-28T12:23:35.727Z,101343.97
2022-10-28T12:26:07.234Z,101337.88
2022-10-28T12:28:39.256Z,101338.00
2022-10-28T12:31:10.756Z,101342.88
2022-10-28T12:33:44.360Z,101344.78
2022-10-28T12:36:18.060Z,101346.22
2022-10-28T12:38:50.016Z,101340.56
2022-10-28T12:41:21.520Z,101335.22
2022-10-28T12:43:53.330Z,101318.19
2022-10-28T12:46:25.340Z,101331.69
2022-10-28T12:48:56.922Z,101331.69
2022-10-28T12:51:28.751Z,101328.03
2022-10-28T12:54:00.253Z,101319.66
2022-10-28T12:56:31.884Z,101313.41
2022-10-28T13:01:40.875Z,101306.34
2022-10-28T13:04:12.879Z,101313.66
2022-10-28T13:06:44.674Z,101307.16
2022-10-28T13:09:16.223Z,101311.38
2022-10-28T13:11:48.095Z,101310.28
2022-10-28T13:14:19.593Z,101317.88
2022-10-28T13:16:51.500Z,101308.03
2022-10-28T13:19:22.993Z,101305.16
2022-10-28T13:21:54.915Z,101299.88
2022-10-28T13:24:26.391Z,101294.44
2022-10-28T13:26:58.277Z,101297.38
2022-10-28T13:29:29.811Z,101291.72
2022-10-28T13:32:01.638Z,101288.53
2022-10-28T13:34:33.297Z,101280.81
2022-10-28T13:37:05.144Z,101289.50
2022-10-28T13:39:36.696Z,101282.31
2022-10-28T13:42:08.422Z,101292.16
2022-10-28T13:44:39.915Z,101288.34
2022-10-28T13:47:11.911Z,101279.28
2022-10-28T13:49:43.436Z,101280.50
2022-10-28T13:52:15.279Z,101277.59
2022-10-28T13:54:46.781Z,101279.53
2022-10-28T13:57:18.701Z,101273.16
2022-10-28T13:59:50.348Z,101281.13
2022-10-28T14:02:34.614Z,101284.94
2022-10-28T14:05:07.372Z,101286.84
2022-10-28T14:07:39.378Z,101280.97
2022-10-28T14:10:11.741Z,101280.44
2022-10-28T14:12:43.608Z,101279.91
2022-10-28T14:15:15.109Z,101282.00
2022-10-28T14:17:46.868Z,101273.59
2022-10-28T14:20:18.382Z,101270.75
2022-10-28T14:22:51.456Z,101263.41
2022-10-28T14:25:22.984Z,101266.91
2022-10-28T14:27:55.167Z,101263.38
2022-10-28T14:30:26.965Z,101260.47
2022-10-28T14:33:00.306Z,101259.19
2022-10-28T14:35:31.842Z,101262.28
2022-10-28T14:38:03.350Z,101266.41
2022-10-28T14:40:36.053Z,101262.41
2022-10-28T14:43:08.155Z,101263.09
2022-10-28T14:45:39.635Z,101266.09
2022-10-28T14:48:11.574Z,101259.91
2022-10-28T14:50:43.107Z,101254.59
2022-10-28T14:53:15.013Z,101256.59
2022-10-28T14:55:46.512Z,101258.03
2022-10-28T14:58:18.322Z,101259.16
2022-10-28T15:00:49.834Z,101260.34
2022-10-28T15:03:21.639Z,101252.31
2022-10-28T15:05:53.488Z,101254.81
2022-10-28T15:08:25.109Z,101258.38
2022-10-28T15:10:57.004Z,101244.34
2022-10-28T15:13:28.499Z,101234.63
2022-10-28T15:16:03.715Z,101233.81
2022-10-28T15:18:36.280Z,101238.47
2022-10-28T15:21:08.364Z,101235.78
2022-10-28T15:23:39.878Z,101236.91
2022-10-28T15:26:11.719Z,101238.00
2022-10-28T15:28:43.228Z,101240.19
2022-10-28T15:31:15.001Z,101242.38
2022-10-28T15:33:46.486Z,101238.06
2022-10-28T15:36:18.668Z,101239.16
2022-10-28T15:38:50.230Z,101243.47
2022-10-28T15:41:22.130Z,101233.44
2022-10-28T15:43:53.636Z,101236.44
2022-10-28T15:46:25.696Z,101234.81
2022-10-28T15:48:57.194Z,101242.34
2022-10-28T15:51:29.102Z,101241.28
2022-10-28T15:54:00.605Z,101244.25
2022-10-28T15:56:32.495Z,101239.09
2022-10-28T15:59:04.352Z,101236.94
2022-10-28T16:01:38.541Z,101172.41
2022-10-28T16:04:10.175Z,101231.47
2022-10-28T16:06:42.126Z,101236.84
2022-10-28T16:09:14.199Z,101242.78
2022-10-28T16:11:45.977Z,101246.00
2022-10-28T16:14:17.537Z,101241.09
2022-10-28T16:16:49.388Z,101233.28
2022-10-28T16:19:20.891Z,101238.38
2022-10-28T16:21:52.426Z,101234.00
2022-10-28T16:24:23.931Z,101231.81
2022-10-28T16:26:55.772Z,101231.78
2022-10-28T16:29:27.301Z,101237.19
2022-10-28T16:31:59.106Z,101238.72
2022-10-28T16:34:30.622Z,101241.44
2022-10-28T16:37:02.445Z,101240.34
2022-10-28T16:39:33.950Z,101241.94
2022-10-28T16:42:05.777Z,101241.91
2022-10-28T16:44:37.274Z,101243.78
2022-10-28T16:47:09.031Z,101239.72
2022-10-28T16:49:40.546Z,101237.56
2022-10-28T16:52:12.398Z,101237.00
2022-10-28T16:54:44.342Z,101238.56
2022-10-28T16:57:15.968Z,101236.06
2022-10-28T16:59:47.825Z,101230.94
2022-10-28T17:02:19.444Z,101227.16
2022-10-28T17:04:52.064Z,101236.31
2022-10-28T17:07:23.568Z,101235.50
2022-10-28T17:09:55.518Z,101226.28
2022-10-28T17:12:27.097Z,101233.78
2022-10-28T17:14:58.918Z,101229.72
2022-10-28T17:17:30.435Z,101239.97
2022-10-28T17:20:02.339Z,101242.66
2022-10-28T17:22:33.858Z,101238.56
2022-10-28T17:25:05.719Z,101245.28
2022-10-28T17:27:37.220Z,101252.81
2022-10-28T17:30:09.180Z,101249.50
2022-10-28T17:32:40.786Z,101245.66
2022-10-28T17:35:12.603Z,101246.47
2022-10-28T17:37:44.114Z,101242.97
2022-10-28T17:40:16.072Z,101248.31
2022-10-28T17:42:47.573Z,101247.72
2022-10-28T17:45:21.188Z,101241.50
2022-10-28T17:47:53.693Z,101242.28
2022-10-28T17:50:25.467Z,101235.75
2022-10-28T17:52:57.369Z,101236.50
2022-10-28T17:55:29.449Z,101238.13
2022-10-28T17:58:00.986Z,101244.34
2022-10-28T18:00:32.761Z,101246.19
2022-10-28T18:03:06.232Z,101244.28
2022-10-28T18:05:38.183Z,101244.25
2022-10-28T18:08:09.705Z,101243.44
2022-10-28T18:10:41.623Z,101243.69
2022-10-28T18:13:13.124Z,101241.47
2022-10-28T18:15:45.060Z,101247.88
2022-10-28T18:18:16.570Z,101245.44
2022-10-28T18:20:48.362Z,101247.06
2022-10-28T18:23:19.852Z,101248.38
2022-10-28T18:25:51.685Z,101238.13
2022-10-28T18:28:23.496Z,101236.47
2022-10-28T18:30:55.330Z,101243.50
2022-10-28T18:33:26.844Z,101233.22
2022-10-28T18:35:58.697Z,101233.22
2022-10-28T18:38:30.869Z,101234.47
2022-10-28T18:41:02.718Z,101235.84
2022-10-28T18:43:34.217Z,101239.03
2022-10-28T18:46:06.050Z,101238.78
2022-10-28T18:48:37.613Z,101236.91
2022-10-28T18:51:09.837Z,101251.19
2022-10-28T18:53:41.396Z,101236.91
2022-10-28T18:56:13.389Z,101235.53
2022-10-28T18:58:44.921Z,101230.41
2022-10-28T19:01:16.821Z,101241.19
2022-10-28T19:03:48.390Z,101241.13
2022-10-28T19:06:20.470Z,101237.81
2022-10-28T19:08:52.313Z,101239.19
2022-10-28T19:11:26.038Z,101241.06
2022-10-28T19:13:58.104Z,101238.88
2022-10-28T19:16:29.934Z,101239.13
2022-10-28T19:19:01.483Z,101237.25
2022-10-28T19:21:33.010Z,101245.59
2022-10-28T19:24:05.299Z,101239.94
2022-10-28T19:26:37.233Z,101242.56
2022-10-28T19:29:08.751Z,101245.53
2022-10-28T19:31:42.225Z,101247.41
2022-10-28T19:34:15.254Z,101240.53
2022-10-28T19:36:47.192Z,101240.88
2022-10-28T19:39:18.694Z,101240.31
2022-10-28T19:41:50.434Z,101244.00
2022-10-28T19:44:21.963Z,101249.38
2022-10-28T19:46:53.804Z,101253.13
2022-10-28T19:49:27.791Z,101257.16
2022-10-28T19:52:00.605Z,101256.09
2022-10-28T19:54:32.102Z,101259.84
2022-10-28T19:57:03.956Z,101261.97
2022-10-28T19:59:35.545Z,101261.09
2022-10-28T20:02:07.568Z,101262.97
2022-10-28T20:04:40.628Z,101274.50
2022-10-28T20:07:12.114Z,101282.25
2022-10-28T20:09:44.155Z,101277.38
2022-10-28T20:12:15.652Z,101277.03
2022-10-28T20:14:47.467Z,101281.38
2022-10-28T20:17:20.838Z,101277.78
2022-10-28T20:19:52.889Z,101280.69
2022-10-28T20:22:24.410Z,101285.75
2022-10-28T20:24:56.395Z,101281.34
2022-10-28T20:27:27.897Z,101284.28
2022-10-28T20:30:00.048Z,101279.94
2022-10-28T20:32:31.577Z,101283.13
2022-10-28T20:35:03.806Z,101283.63
2022-10-28T20:37:35.303Z,101284.69
2022-10-28T20:40:07.663Z,101287.38
2022-10-28T20:42:39.339Z,101284.69
2022-10-28T20:45:10.895Z,101286.00
2022-10-28T20:47:42.399Z,101288.94
2022-10-28T20:50:14.199Z,101290.50
2022-10-28T20:52:45.695Z,101294.00
2022-10-28T20:55:17.541Z,101293.19
2022-10-28T20:57:49.033Z,101288.84
2022-10-28T21:00:20.962Z,101285.53
2022-10-28T21:02:52.583Z,101289.47
2022-10-28T21:05:25.162Z,101054.41
2022-10-28T21:07:57.108Z,101288.91
2022-10-28T21:10:29.213Z,101296.75
2022-10-28T21:13:00.697Z,101301.56
2022-10-28T21:15:32.574Z,101304.25
2022-10-28T21:18:04.102Z,101303.91
2022-10-28T21:20:36.012Z,101302.84
2022-10-28T21:23:07.514Z,101303.91
2022-10-28T21:25:40.300Z,101304.97
2022-10-28T21:28:11.800Z,101306.84
2022-10-28T21:30:43.765Z,101296.09
2022-10-28T21:33:17.646Z,101306.28
2022-10-28T21:35:49.156Z,101296.56
2022-10-28T21:38:20.648Z,101292.00
2022-10-28T21:40:52.500Z,101298.69
2022-10-28T21:43:23.993Z,101294.63
2022-10-28T21:45:55.806Z,101299.75
2022-10-28T21:48:27.412Z,101306.19
2022-10-28T21:50:59.360Z,101300.00
2022-10-28T21:53:30.846Z,101297.56
2022-10-28T21:56:02.708Z,101305.63
2022-10-28T21:58:34.180Z,101298.84
2022-10-28T22:01:05.947Z,101294.63
2022-10-28T22:03:37.495Z,101295.91
2022-10-28T22:06:09.316Z,101298.28
2022-10-28T22:08:40.913Z,101301.47
2022-10-28T22:11:12.836Z,101299.81
2022-10-28T22:13:44.360Z,101304.41
2022-10-28T22:16:16.207Z,101312.56
2022-10-28T22:18:47.734Z,101311.25
2022-10-28T22:21:19.543Z,101310.34
2022-10-28T22:23:51.037Z,101321.19
2022-10-28T22:26:23.046Z,101316.97
2022-10-28T22:28:54.565Z,101317.63
2022-10-28T22:31:26.359Z,101315.00
2022-10-28T22:33:57.863Z,101327.59
2022-10-28T22:36:29.756Z,101332.50
2022-10-28T22:39:01.244Z,101326.28
2022-10-28T22:41:33.412Z,101322.28
2022-10-28T22:44:05.391Z,101325.56
2022-10-28T22:46:37.228Z,101332.66
2022-10-28T22:49:08.713Z,101325.41
2022-10-28T22:51:40.586Z,101324.81
2022-10-28T22:54:12.086Z,101328.31
2022-10-28T22:56:46.705Z,101333.97
2022-10-28T22:59:18.206Z,101331.84
2022-10-28T23:01:50.166Z,101335.34
2022-10-28T23:04:21.684Z,101342.34
2022-10-28T23:06:53.530Z,101355.00
2022-10-28T23:09:25.046Z,101363.00
2022-10-28T23:11:56.886Z,101363.72
2022-10-28T23:14:28.383Z,101367.47
2022-10-28T23:16:59.976Z,101365.28
2022-10-28T23:19:31.484Z,101364.22
2022-10-28T23:22:03.450Z,101365.84
2022-10-28T23:24:34.966Z,101366.91
2022-10-28T23:27:06.609Z,101357.69
2022-10-28T23:29:38.113Z,101363.41
2022-10-28T23:32:10.111Z,101357.28
2022-10-28T23:34:41.671Z,101358.25
2022-10-28T23:37:13.844Z,101365.78
2022-10-28T23:39:45.384Z,101379.81
2022-10-28T23:42:17.211Z,101364.13
2022-10-28T23:44:48.757Z,101360.72
2022-10-28T23:47:20.622Z,101363.31
2022-10-28T23:49:52.942Z,101366.41
2022-10-28T23:52:24.782Z,101363.97
2022-10-28T23:54:56.665Z,101361.78
2022-10-28T23:57:28.165Z,101366.81
2022-10-28T23:59:59.937Z,101369.19
